Time;durP1;ratioP1;P1;durP2;ratioP2;P2;SDS_P1;SDS_P2;PMS_P1;PMS_P2;Temp;Humidity;BMP_temperature;BMP_pressure;BME280_temperature;BME280_humidity;BME280_pressure;Samples;Min_cycle;Max_cycle;Signal;HPM_P1;HPM_P2
2022/10/05 00:01:59;;;;;;;16.65;7.65;;;;;;;20.83;61.09;101097.78;5064446;28;20509;-76
2022/10/05 00:04:28;;;;;;;13.20;6.55;;;;;;;20.83;60.63;101090.78;5065480;28;20043;-76
2022/10/05 00:07:01;;;;;;;15.57;6.55;;;;;;;20.81;61.20;101091.66;5056789;28;20041;-76
2022/10/05 00:09:32;;;;;;;12.75;7.05;;;;;;;20.78;60.87;101084.69;5060802;28;20053;-73
2022/10/05 00:12:06;;;;;;;12.13;6.05;;;;;;;20.76;61.05;101090.84;5068656;28;20073;-76
2022/10/05 00:14:37;;;;;;;12.05;7.40;;;;;;;20.73;61.34;101083.84;5074216;28;20047;-75
2022/10/05 00:17:06;;;;;;;24.45;7.10;;;;;;;20.70;61.35;101081.22;5068214;28;20094;-76
2022/10/05 00:19:37;;;;;;;17.67;5.68;;;;;;;20.66;61.71;101074.22;5057399;28;20044;-76
2022/10/05 00:22:12;;;;;;;12.23;6.80;;;;;;;20.61;61.61;101071.63;5069297;28;20052;-77
2022/10/05 00:24:40;;;;;;;16.27;7.05;;;;;;;20.49;61.73;101076.94;5070726;28;20619;-77
2022/10/05 00:27:18;;;;;;;13.65;6.45;;;;;;;20.45;62.27;101076.09;5076880;28;20053;-73
2022/10/05 00:29:49;;;;;;;16.50;6.57;;;;;;;20.40;62.22;101077.88;5063065;28;20080;-73
2022/10/05 00:32:18;;;;;;;10.57;6.35;;;;;;;20.39;62.44;101085.78;5053194;28;20044;-72
2022/10/05 00:34:47;;;;;;;11.98;5.90;;;;;;;20.37;63.09;101085.78;5069393;28;21028;-72
2022/10/05 00:37:16;;;;;;;19.05;6.40;;;;;;;20.34;62.93;101087.53;5073323;28;20056;-72
2022/10/05 00:39:45;;;;;;;10.73;6.65;;;;;;;20.33;63.31;101091.06;5070452;28;20052;-71
2022/10/05 00:42:31;;;;;;;18.48;6.50;;;;;;;20.26;63.19;101083.22;5055902;28;20049;-71
2022/10/05 00:45:08;;;;;;;17.75;6.20;;;;;;;20.22;63.72;101089.34;5060967;28;20127;-73
2022/10/05 00:47:44;;;;;;;11.80;6.15;;;;;;;20.17;64.05;101085.88;5051509;28;20063;-73
2022/10/05 00:50:40;;;;;;;15.20;6.55;;;;;;;20.12;63.89;101094.69;5065389;28;20501;-74
2022/10/05 00:53:21;;;;;;;14.05;6.13;;;;;;;20.07;64.44;101086.81;5069461;28;20098;-72
2022/10/05 00:55:58;;;;;;;11.98;5.85;;;;;;;20.05;64.48;101093.84;5060248;28;20420;-72
2022/10/05 00:58:35;;;;;;;14.20;6.18;;;;;;;20.00;64.67;101090.34;5065995;28;20561;-72
2022/10/05 01:01:12;;;;;;;13.88;6.32;;;;;;;19.91;64.89;101093.03;5058927;28;20051;-72
2022/10/05 01:03:54;;;;;;;10.68;5.43;;;;;;;19.84;66.86;101103.53;5061575;28;20045;-72
2022/10/05 01:06:30;;;;;;;13.77;5.95;;;;;;;19.77;67.07;101107.06;5066929;28;20037;-72
2022/10/05 01:09:09;;;;;;;9.15;4.80;;;;;;;19.71;67.97;101099.19;5056367;28;20049;-72
2022/10/05 01:11:47;;;;;;;11.52;6.40;;;;;;;19.65;67.56;101099.16;5065134;28;20084;-71
2022/10/05 01:14:22;;;;;;;11.10;6.57;;;;;;;19.60;67.02;101103.56;5067869;28;20077;-72
2022/10/05 01:16:58;;;;;;;11.27;4.90;;;;;;;19.55;69.49;101110.56;5065307;28;20045;-73
2022/10/05 01:19:49;;;;;;;13.32;4.90;;;;;;;19.45;69.89;101110.59;5057550;28;20045;-73
2022/10/05 01:22:30;;;;;;;11.95;5.57;;;;;;;19.36;70.47;101114.97;5066162;28;20044;-71
2022/10/05 01:25:17;;;;;;;11.18;5.15;;;;;;;19.29;70.94;101114.09;5053424;28;20128;-72
2022/10/05 01:27:59;;;;;;;10.00;5.72;;;;;;;19.15;71.31;101110.59;5062923;28;20047;-71
2022/10/05 01:30:32;;;;;;;9.98;5.53;;;;;;;19.17;71.13;101121.97;5059654;28;20076;-70
2022/10/05 01:33:08;;;;;;;15.65;5.70;;;;;;;19.11;70.93;101119.38;5072984;28;20078;-70
2022/10/05 01:35:50;;;;;;;10.98;4.82;;;;;;;19.05;71.21;101123.72;5055398;28;20554;-72
2022/10/05 01:38:31;;;;;;;11.38;5.38;;;;;;;19.00;71.95;101122.84;5061361;28;20648;-71
2022/10/05 01:41:07;;;;;;;9.55;4.93;;;;;;;18.94;72.48;101129.81;5051694;28;20122;-72
2022/10/05 01:43:44;;;;;;;14.38;5.43;;;;;;;18.87;72.71;101128.06;5051027;28;20083;-76
2022/10/05 01:46:24;;;;;;;12.85;4.93;;;;;;;18.80;72.83;101133.28;5058792;28;20578;-76
2022/10/05 01:49:07;;;;;;;12.18;5.70;;;;;;;18.72;73.26;101134.16;5057790;28;20059;-75
2022/10/05 01:51:44;;;;;;;9.18;5.18;;;;;;;18.62;73.51;101139.38;5064324;28;20073;-75
2022/10/05 01:54:30;;;;;;;7.05;5.13;;;;;;;18.48;73.76;101133.19;5053710;28;20049;-77
2022/10/05 01:57:09;;;;;;;11.45;5.05;;;;;;;18.44;74.10;101136.69;5060938;28;20505;-75
2022/10/05 01:59:52;;;;;;;9.43;5.40;;;;;;;18.36;74.64;101139.28;5069016;28;20131;-75
2022/10/05 02:02:24;;;;;;;7.78;4.70;;;;;;;18.31;74.81;101145.38;5064486;28;20048;-76
2022/10/05 02:04:58;;;;;;;12.60;4.53;;;;;;;18.21;75.84;101145.34;5044072;28;20110;-76
2022/10/05 02:07:33;;;;;;;8.52;3.85;;;;;;;18.15;76.52;101149.66;5064716;28;20528;-75
2022/10/05 02:10:06;;;;;;;11.00;5.95;;;;;;;18.10;76.83;101157.50;5061701;28;20055;-75
2022/10/05 02:12:38;;;;;;;14.10;4.53;;;;;;;18.06;77.05;101154.88;5060160;28;20049;-76
2022/10/05 02:15:14;;;;;;;8.90;4.25;;;;;;;18.01;77.47;101165.31;5063886;28;20053;-76
2022/10/05 02:17:48;;;;;;;8.20;4.82;;;;;;;17.93;77.52;101160.00;5066306;28;20044;-74
2022/10/05 02:20:23;;;;;;;8.65;5.15;;;;;;;17.89;77.82;101165.22;5058658;28;20421;-74
2022/10/05 02:22:54;;;;;;;9.88;4.07;;;;;;;17.83;77.89;101167.84;5060354;28;20607;-74
2022/10/05 02:25:26;;;;;;;6.75;4.35;;;;;;;17.75;78.74;101175.56;5054630;28;20045;-77
2022/10/05 02:27:58;;;;;;;7.63;4.03;;;;;;;17.68;79.33;101164.19;5060490;28;20040;-75
2022/10/05 02:30:30;;;;;;;7.72;4.78;;;;;;;17.59;80.32;101169.34;5060182;28;20509;-74
2022/10/05 02:33:06;;;;;;;15.43;5.25;;;;;;;17.51;81.10;101173.69;5071604;28;20503;-75
2022/10/05 02:35:34;;;;;;;6.43;4.05;;;;;;;17.43;81.48;101178.84;5055416;28;20045;-74
2022/10/05 02:38:16;;;;;;;7.70;4.45;;;;;;;17.37;82.10;101177.06;5067865;28;20052;-73
2022/10/05 02:40:55;;;;;;;10.52;4.22;;;;;;;17.35;82.21;101181.38;5053655;28;20099;-74
2022/10/05 02:43:37;;;;;;;8.07;4.57;;;;;;;17.35;81.99;101188.38;5062145;28;20048;-74
2022/10/05 02:46:20;;;;;;;8.35;3.45;;;;;;;17.30;81.54;101196.19;5058349;28;20057;-75
2022/10/05 02:49:03;;;;;;;7.35;3.90;;;;;;;17.27;81.63;101201.38;5061245;28;21276;-75
2022/10/05 02:51:41;;;;;;;8.50;4.30;;;;;;;17.25;81.35;101202.22;5061342;28;20413;-77
2022/10/05 02:54:16;;;;;;;8.32;4.07;;;;;;;17.13;81.89;101197.75;5059367;28;20045;-75
2022/10/05 02:56:54;;;;;;;11.43;3.95;;;;;;;17.13;81.76;101206.50;5065919;28;20474;-76
2022/10/05 02:59:27;;;;;;;7.80;4.18;;;;;;;17.10;82.02;101208.19;5056775;28;20498;-76
2022/10/05 03:02:05;;;;;;;16.17;4.88;;;;;;;17.05;81.98;101212.50;5065016;28;20448;-76
2022/10/05 03:04:40;;;;;;;10.13;4.00;;;;;;;17.00;82.21;101212.44;5059649;28;20052;-79
2022/10/05 03:07:16;;;;;;;10.85;3.80;;;;;;;16.93;82.36;101208.03;5053308;28;20793;-75
2022/10/05 03:09:52;;;;;;;13.48;4.38;;;;;;;16.89;82.86;101212.31;5057743;28;20052;-75
2022/10/05 03:12:43;;;;;;;7.93;4.13;;;;;;;16.84;82.35;101214.03;5047874;28;20041;-74
2022/10/05 03:15:23;;;;;;;10.93;3.75;;;;;;;16.79;81.78;101218.34;5061375;28;20053;-74
2022/10/05 03:18:04;;;;;;;10.30;4.15;;;;;;;16.75;82.19;101219.13;5054253;28;20049;-74
2022/10/05 03:20:41;;;;;;;14.00;4.28;;;;;;;16.71;82.99;101230.38;5065368;28;20063;-75
2022/10/05 03:23:19;;;;;;;6.95;3.17;;;;;;;16.68;83.60;101217.28;5061631;28;20053;-76
2022/10/05 03:26:20;;;;;;;7.60;4.07;;;;;;;16.64;83.83;101218.97;5065030;28;20549;-77
2022/10/05 03:29:00;;;;;;;8.40;4.22;;;;;;;16.60;83.23;101213.69;5049200;28;20056;-74
2022/10/05 03:31:38;;;;;;;12.23;3.97;;;;;;;16.52;82.72;101224.06;5069189;28;20048;-74
2022/10/05 03:34:14;;;;;;;8.35;3.47;;;;;;;16.46;83.81;101221.38;5070783;28;20052;-76
2022/10/05 03:36:50;;;;;;;6.80;3.95;;;;;;;16.42;84.67;101224.78;5059934;27;20603;-77
2022/10/05 03:39:28;;;;;;;7.55;4.68;;;;;;;16.39;83.43;101230.84;5069876;28;20494;-78
2022/10/05 03:42:04;;;;;;;7.40;4.10;;;;;;;16.35;83.29;101231.66;5059647;28;20052;-74
2022/10/05 03:44:44;;;;;;;10.07;3.40;;;;;;;16.32;83.27;101240.34;5059689;28;20646;-76
2022/10/05 03:47:22;;;;;;;8.50;3.85;;;;;;;16.26;84.53;101239.38;5064971;28;20142;-71
2022/10/05 03:50:07;;;;;;;9.45;3.80;;;;;;;16.21;84.41;101243.66;5062331;28;20095;-74
2022/10/05 03:52:40;;;;;;;8.05;3.58;;;;;;;16.16;85.06;101245.34;5055480;28;20048;-76
2022/10/05 03:55:18;;;;;;;9.32;3.83;;;;;;;16.10;84.86;101249.63;5066847;28;20045;-76
2022/10/05 03:57:48;;;;;;;5.80;3.22;;;;;;;16.06;84.76;101254.78;5068738;28;20048;-76
2022/10/05 04:00:21;;;;;;;8.18;3.80;;;;;;;16.00;84.74;101252.94;5058286;28;20056;-73
2022/10/05 04:02:56;;;;;;;11.25;4.05;;;;;;;15.94;84.99;101263.25;5057485;28;20081;-74
2022/10/05 04:05:30;;;;;;;6.07;3.63;;;;;;;15.90;85.33;101254.53;5063391;28;20056;-73
2022/10/05 04:08:07;;;;;;;6.95;4.15;;;;;;;15.86;85.72;101257.94;5053777;28;20063;-73
2022/10/05 04:10:42;;;;;;;12.98;3.72;;;;;;;15.84;85.39;101257.03;5067016;28;20053;-77
2022/10/05 04:13:17;;;;;;;9.43;3.80;;;;;;;15.82;85.08;101263.09;5057395;28;20442;-76
2022/10/05 04:15:53;;;;;;;10.73;4.22;;;;;;;15.79;85.60;101263.03;5060357;28;20462;-76
2022/10/05 04:18:29;;;;;;;6.82;3.97;;;;;;;15.78;85.53;101269.09;5052717;28;20053;-75
2022/10/05 04:21:05;;;;;;;11.10;3.72;;;;;;;15.75;85.77;101266.44;5064972;28;20048;-75
2022/10/05 04:23:44;;;;;;;9.25;3.83;;;;;;;15.70;85.41;101267.25;5064877;28;20429;-74
2022/10/05 04:26:18;;;;;;;7.00;3.05;;;;;;;15.63;85.86;101275.78;5071650;28;20632;-74
2022/10/05 04:28:55;;;;;;;9.80;3.67;;;;;;;15.60;85.02;101270.53;5079232;28;20043;-75
2022/10/05 04:31:38;;;;;;;12.88;3.47;;;;;;;15.56;85.29;101276.53;5074788;28;20503;-71
2022/10/05 04:34:28;;;;;;;11.20;3.95;;;;;;;15.53;85.47;101280.81;5072572;28;20121;-72
2022/10/05 04:37:04;;;;;;;6.93;4.15;;;;;;;15.51;86.60;101283.41;5064229;28;20060;-71
2022/10/05 04:39:42;;;;;;;13.45;3.70;;;;;;;15.48;86.53;101283.34;5056548;28;20544;-71
2022/10/05 04:42:22;;;;;;;9.02;4.07;;;;;;;15.46;87.35;101292.88;5056470;28;20574;-72
2022/10/05 04:45:09;;;;;;;12.40;4.20;;;;;;;15.41;88.24;101290.16;5062249;28;20052;-71
2022/10/05 04:48:12;;;;;;;8.70;3.55;;;;;;;15.38;88.09;101284.03;5050663;28;20492;-69
2022/10/05 04:50:57;;;;;;;7.68;3.70;;;;;;;15.35;88.44;101289.22;5053577;28;20643;-73
2022/10/05 04:53:34;;;;;;;7.57;3.92;;;;;;;15.32;87.89;101287.41;5062816;28;20052;-71
2022/10/05 04:56:10;;;;;;;7.75;4.30;;;;;;;15.31;88.75;101298.69;5065514;28;20114;-74
2022/10/05 04:58:51;;;;;;;6.07;3.58;;;;;;;15.28;88.08;101299.50;5059270;28;20076;-74
2022/10/05 05:01:38;;;;;;;6.13;3.42;;;;;;;15.24;87.48;101297.69;5062983;28;20037;-73
2022/10/05 05:04:24;;;;;;;7.63;3.55;;;;;;;15.21;87.12;101300.25;5050214;28;20537;-73
2022/10/05 05:07:04;;;;;;;12.10;3.88;;;;;;;15.19;87.51;101306.28;5054859;28;20045;-73
2022/10/05 05:10:05;;;;;;;5.97;3.92;;;;;;;15.15;86.88;101301.84;5057524;28;20114;-74
2022/10/05 05:12:44;;;;;;;6.07;3.42;;;;;;;15.09;88.15;101305.19;5063198;28;20071;-73
2022/10/05 05:15:29;;;;;;;6.97;3.75;;;;;;;15.04;88.40;101304.25;5062947;28;20037;-75
2022/10/05 05:18:20;;;;;;;8.60;3.60;;;;;;;14.99;87.46;101309.38;5060689;28;20457;-77
2022/10/05 05:20:57;;;;;;;11.43;3.42;;;;;;;14.99;87.69;101303.28;5043327;28;20519;-74
2022/10/05 05:23:33;;;;;;;9.52;3.35;;;;;;;14.96;87.68;101308.44;5058653;28;20048;-75
2022/10/05 05:26:13;;;;;;;7.25;3.13;;;;;;;14.91;88.14;101305.72;5061962;28;20076;-74
2022/10/05 05:28:50;;;;;;;9.07;3.28;;;;;;;14.88;87.79;101314.34;5058991;28;20040;-76
2022/10/05 05:31:29;;;;;;;6.20;3.50;;;;;;;14.86;88.46;101318.63;5068289;28;20128;-75
2022/10/05 05:34:04;;;;;;;7.25;3.55;;;;;;;14.81;88.36;101325.50;5061783;28;20460;-75
2022/10/05 05:36:51;;;;;;;6.53;3.40;;;;;;;14.78;88.45;101322.81;5060802;27;20064;-76
2022/10/05 05:39:27;;;;;;;8.32;3.65;;;;;;;14.75;88.75;101320.16;5059704;28;20607;-76
2022/10/05 05:42:02;;;;;;;5.07;2.95;;;;;;;14.71;88.80;101318.34;5056888;28;20452;-77
2022/10/05 05:44:37;;;;;;;9.40;3.85;;;;;;;14.68;89.07;101326.06;5058883;28;20056;-71
2022/10/05 05:47:14;;;;;;;5.20;3.10;;;;;;;14.61;88.88;101322.47;5067621;28;20051;-71
2022/10/05 05:50:01;;;;;;;13.15;3.30;;;;;;;14.60;88.50;101330.25;5063288;28;20144;-70
2022/10/05 05:52:35;;;;;;;7.40;3.60;;;;;;;14.58;88.73;101331.94;5057934;28;20513;-72
2022/10/05 05:55:12;;;;;;;14.63;3.50;;;;;;;14.54;89.12;101335.28;5066242;28;20044;-72
2022/10/05 05:57:47;;;;;;;10.00;3.33;;;;;;;14.49;89.39;101336.91;5059118;28;20560;-71
2022/10/05 06:00:22;;;;;;;8.40;3.40;;;;;;;14.45;89.49;101335.94;5068235;28;20053;-71
2022/10/05 06:02:57;;;;;;;11.63;3.28;;;;;;;14.41;90.18;101332.41;5068756;28;20114;-71
2022/10/05 06:05:31;;;;;;;9.75;3.92;;;;;;;14.36;90.22;101328.81;5073316;28;20055;-71
2022/10/05 06:08:06;;;;;;;7.88;3.47;;;;;;;14.37;90.44;101338.38;5058884;28;20116;-71
2022/10/05 06:10:42;;;;;;;7.03;3.75;;;;;;;14.37;90.33;101333.16;5055342;28;20481;-71
2022/10/05 06:13:20;;;;;;;7.63;3.45;;;;;;;14.35;90.85;101336.59;5062631;28;20056;-71
2022/10/05 06:15:52;;;;;;;7.70;3.20;;;;;;;14.33;90.90;101339.13;5052782;28;20045;-71
2022/10/05 06:18:23;;;;;;;8.32;3.80;;;;;;;14.29;90.17;101328.63;5062033;28;20123;-71
2022/10/05 06:20:58;;;;;;;8.48;3.60;;;;;;;14.28;90.66;101332.97;5066275;28;20056;-71
2022/10/05 06:23:34;;;;;;;6.63;3.08;;;;;;;14.29;90.42;101331.22;5070001;28;20447;-72
2022/10/05 06:26:18;;;;;;;6.50;3.40;;;;;;;14.26;90.32;101337.25;5059017;28;20559;-71
2022/10/05 06:28:57;;;;;;;6.75;3.08;;;;;;;14.25;90.89;101340.72;5057693;28;20059;-71
2022/10/05 06:31:40;;;;;;;9.00;3.55;;;;;;;14.22;90.93;101340.59;5064552;28;20500;-71
2022/10/05 06:34:23;;;;;;;7.10;3.20;;;;;;;14.18;90.08;101342.28;5060665;28;20037;-71
2022/10/05 06:36:59;;;;;;;9.60;3.75;;;;;;;14.16;90.47;101337.88;5061344;28;20543;-72
2022/10/05 06:39:57;;;;;;;8.90;3.70;;;;;;;14.13;90.17;101343.00;5064686;28;20616;-71
2022/10/05 06:42:40;;;;;;;6.13;3.30;;;;;;;14.12;90.52;101336.03;5062443;28;20102;-71
2022/10/05 06:45:20;;;;;;;6.20;3.38;;;;;;;14.09;90.17;101341.16;5072358;28;20568;-71
2022/10/05 06:47:54;;;;;;;6.88;3.72;;;;;;;13.97;90.67;101324.44;5050753;28;20428;-71
2022/10/05 06:50:32;;;;;;;6.50;3.67;;;;;;;14.01;91.23;101347.03;5070108;28;20118;-71
2022/10/05 06:53:25;;;;;;;7.25;3.47;;;;;;;13.99;92.06;101332.25;5067871;28;20402;-71
2022/10/05 06:56:02;;;;;;;8.68;3.63;;;;;;;13.96;91.85;101342.59;5065326;28;20647;-71
2022/10/05 06:58:54;;;;;;;6.97;3.00;;;;;;;13.92;91.16;101341.63;5068031;28;20464;-71
2022/10/05 07:01:34;;;;;;;9.95;3.85;;;;;;;13.91;91.36;101341.59;5064421;28;20047;-71
2022/10/05 07:04:34;;;;;;;6.45;4.10;;;;;;;13.89;91.20;101338.94;5063178;28;20493;-71
2022/10/05 07:07:09;;;;;;;7.70;3.63;;;;;;;13.86;90.64;101335.38;5070915;28;20055;-71
2022/10/05 07:09:46;;;;;;;11.70;4.65;;;;;;;13.83;91.35;101349.19;5067000;28;20091;-71
2022/10/05 07:12:43;;;;;;;10.52;3.30;;;;;;;13.73;92.11;101344.59;5073939;28;20048;-71
2022/10/05 07:15:30;;;;;;;5.15;3.13;;;;;;;13.62;91.94;101350.38;5059022;28;21015;-71
2022/10/05 07:18:14;;;;;;;10.43;3.58;;;;;;;13.58;92.21;101351.16;5069245;28;20453;-71
2022/10/05 07:20:51;;;;;;;4.97;3.55;;;;;;;13.55;91.14;101351.06;5063721;28;20477;-71
2022/10/05 07:23:34;;;;;;;7.57;3.33;;;;;;;13.52;91.99;101358.78;5066546;28;20041;-70
2022/10/05 07:26:09;;;;;;;7.93;3.38;;;;;;;13.43;91.62;101361.16;5058189;28;20433;-70
2022/10/05 07:28:47;;;;;;;7.28;3.08;;;;;;;13.35;91.99;101358.34;5063016;28;20514;-71
2022/10/05 07:31:25;;;;;;;7.32;3.80;;;;;;;13.34;91.54;101363.50;5064549;28;20497;-71
2022/10/05 07:34:06;;;;;;;8.40;3.70;;;;;;;13.35;92.26;101367.84;5061965;28;20063;-71
2022/10/05 07:39:36;;;;;;;7.85;3.42;;;;;;;13.35;91.69;101389.53;5063332;28;20054;-71
2022/10/05 07:42:17;;;;;;;8.70;3.78;;;;;;;13.36;92.22;101378.28;5058054;28;20044;-71
2022/10/05 07:44:54;;;;;;;5.78;3.53;;;;;;;13.34;91.95;101386.88;5068347;28;20102;-71
2022/10/05 07:47:34;;;;;;;5.63;2.55;;;;;;;13.34;91.51;101374.75;5065797;28;20522;-71
2022/10/05 07:50:13;;;;;;;11.32;3.85;;;;;;;13.33;92.12;101388.63;5062388;28;20048;-71
2022/10/05 07:52:47;;;;;;;8.93;3.40;;;;;;;13.33;92.06;101383.41;5058971;28;20123;-70
2022/10/05 07:55:21;;;;;;;8.65;3.72;;;;;;;13.31;92.32;101377.28;5062222;28;20524;-71
2022/10/05 07:58:03;;;;;;;8.35;3.45;;;;;;;13.30;92.25;101378.09;5059313;28;20567;-71
2022/10/05 08:00:49;;;;;;;9.98;3.78;;;;;;;13.29;91.85;101380.69;5054939;28;20573;-71
2022/10/05 08:03:27;;;;;;;9.25;2.60;;;;;;;13.28;91.77;101391.91;5054397;28;20044;-71
2022/10/05 08:06:00;;;;;;;4.80;2.83;;;;;;;13.26;91.29;101390.94;5065687;28;20136;-71
2022/10/05 08:08:36;;;;;;;12.98;2.85;;;;;;;13.22;91.60;101384.78;5063578;28;20049;-71
2022/10/05 08:11:14;;;;;;;4.93;2.75;;;;;;;13.19;91.58;101382.09;5063365;28;20538;-71
2022/10/05 08:13:50;;;;;;;7.95;2.97;;;;;;;13.15;92.28;101383.72;5064854;28;20090;-71
2022/10/05 08:16:20;;;;;;;11.32;3.58;;;;;;;13.10;91.95;101385.31;5066625;28;20048;-71
2022/10/05 08:18:57;;;;;;;6.70;3.65;;;;;;;13.08;92.65;101386.09;5059004;28;20047;-71
2022/10/05 08:21:35;;;;;;;7.65;2.92;;;;;;;13.06;91.39;101382.59;5062439;28;20048;-71
2022/10/05 08:24:11;;;;;;;4.53;3.05;;;;;;;13.04;91.31;101374.75;5061268;28;20492;-71
2022/10/05 08:26:50;;;;;;;4.95;2.75;;;;;;;12.98;92.39;101374.53;5060556;28;20502;-71
2022/10/05 08:29:26;;;;;;;6.30;3.08;;;;;;;12.95;92.52;101384.84;5067404;28;20040;-71
2022/10/05 08:31:59;;;;;;;10.25;3.38;;;;;;;12.92;92.72;101383.06;5063188;28;20059;-72
2022/10/05 08:34:35;;;;;;;8.40;3.00;;;;;;;12.92;92.71;101384.78;5061509;28;20044;-71
2022/10/05 08:37:09;;;;;;;10.68;3.13;;;;;;;12.89;92.50;101389.84;5060638;27;20131;-71
2022/10/05 08:39:41;;;;;;;5.30;4.03;;;;;;;12.85;93.31;101394.09;5062895;28;20115;-71
2022/10/05 08:42:37;;;;;;;6.07;3.03;;;;;;;12.83;93.65;101385.38;5055183;28;20057;-71
2022/10/05 08:45:55;;;;;;;4.38;3.15;;;;;;;12.86;93.18;101394.97;5054863;28;20716;-71
2022/10/05 08:49:03;;;;;;;4.32;2.92;;;;;;;12.84;92.94;101399.22;5057616;28;20040;-71
2022/10/05 08:52:04;;;;;;;5.45;3.08;;;;;;;12.85;92.43;101399.28;5017483;28;20052;-71
2022/10/05 08:54:47;;;;;;;4.93;3.28;;;;;;;12.88;93.51;101408.88;5056259;28;20059;-71
2022/10/05 08:57:39;;;;;;;7.88;3.17;;;;;;;12.89;93.16;101410.63;5064823;28;20592;-70
2022/10/05 09:00:13;;;;;;;15.07;3.93;;;;;;;12.92;93.76;101410.75;5062500;28;20059;-71
2022/10/05 09:03:06;;;;;;;10.15;3.72;;;;;;;12.93;94.35;101418.56;5062881;28;20135;-71
2022/10/05 09:05:52;;;;;;;;;;;;;;;12.93;96.51;101417.69;5065218;28;20052;-71
2022/10/05 09:08:47;;;;;;;11.85;4.85;;;;;;;12.91;96.92;101422.84;5024678;28;19927;-71
2022/10/05 09:11:25;;;;;;;12.98;4.10;;;;;;;12.92;97.65;101416.81;5065868;28;20053;-71
2022/10/05 09:14:15;;;;;;;12.85;4.07;;;;;;;12.95;97.86;101421.22;5058573;28;20132;-71
2022/10/05 09:17:36;;;;;;;8.60;4.13;;;;;;;12.95;99.14;101422.09;5062961;28;20169;-71
2022/10/05 09:20:31;;;;;;;6.65;3.35;;;;;;;12.95;99.12;101426.41;5058067;28;20545;-71
2022/10/05 09:23:12;;;;;;;11.18;4.70;;;;;;;12.96;99.58;101433.38;5049425;28;20516;-71
2022/10/05 09:25:57;;;;;;;8.70;3.80;;;;;;;12.98;99.44;101421.31;5064338;28;20043;-71
2022/10/05 09:28:34;;;;;;;8.57;3.83;;;;;;;13.02;99.16;101425.75;5062045;28;20048;-71
2022/10/05 09:31:20;;;;;;;10.30;4.13;;;;;;;13.04;99.08;101426.69;5053384;28;20497;-71
2022/10/05 09:34:35;;;;;;;8.10;4.47;;;;;;;13.07;99.09;101431.09;5057428;28;20461;-71
2022/10/05 09:37:25;;;;;;;8.73;4.05;;;;;;;13.08;99.27;101425.97;5043718;28;20902;-72
2022/10/05 09:40:28;;;;;;;9.07;3.45;;;;;;;13.12;99.46;101432.97;5047529;28;20048;-71
2022/10/05 09:43:14;;;;;;;14.00;3.80;;;;;;;13.17;99.18;101422.72;5055745;28;20052;-71
2022/10/05 09:46:01;;;;;;;14.98;4.50;;;;;;;13.21;99.15;101424.59;5067933;28;20149;-71
2022/10/05 09:48:55;;;;;;;6.85;4.55;;;;;;;13.25;99.44;101425.56;5059025;28;20048;-71
2022/10/05 09:51:59;;;;;;;10.80;4.35;;;;;;;13.29;99.56;101427.47;5020506;28;20453;-71
2022/10/05 09:55:00;;;;;;;13.85;4.45;;;;;;;13.31;99.49;101425.75;4974660;28;20050;-71
2022/10/05 09:58:07;;;;;;;7.93;4.53;;;;;;;13.35;100.00;101422.41;5059134;28;20744;-70
2022/10/05 10:00:56;;;;;;;8.32;3.80;;;;;;;13.39;100.00;101424.28;5059830;28;20059;-70
2022/10/05 10:04:08;;;;;;;14.38;4.80;;;;;;;13.43;100.00;101431.34;5058132;28;20105;-71
2022/10/05 10:07:12;;;;;;;8.43;3.60;;;;;;;13.46;100.00;101431.41;5064156;28;20083;-71
2022/10/05 10:09:52;;;;;;;8.43;4.68;;;;;;;13.48;100.00;101423.66;5044184;28;20040;-72
2022/10/05 10:12:36;;;;;;;9.98;3.90;;;;;;;13.51;100.00;101423.75;5059725;28;20045;-71
2022/10/05 10:16:04;;;;;;;8.18;3.80;;;;;;;13.50;100.00;101428.06;5053182;28;20052;-71
2022/10/05 10:19:13;;;;;;;8.63;3.95;;;;;;;13.56;100.00;101428.25;5057438;28;20059;-71
2022/10/05 10:22:11;;;;;;;9.25;3.90;;;;;;;13.58;100.00;101429.19;5059905;28;21054;-70
2022/10/05 10:25:11;;;;;;;14.48;4.40;;;;;;;13.57;100.00;101427.41;5052515;28;20055;-71
2022/10/05 10:28:05;;;;;;;8.77;4.53;;;;;;;13.60;100.00;101430.06;5045116;28;20057;-71
2022/10/05 10:31:08;;;;;;;10.13;3.83;;;;;;;13.62;100.00;101433.59;5064366;28;20060;-71
2022/10/05 10:33:51;;;;;;;;;;;;;;;13.68;100.00;101432.03;5062716;28;20048;-71
2022/10/05 10:36:28;;;;;;;10.98;4.95;;;;;;;13.70;100.00;101433.84;5060419;28;20795;-71
2022/10/05 10:39:02;;;;;;;11.20;3.85;;;;;;;13.71;100.00;101425.19;5066877;27;20059;-72
2022/10/05 10:42:01;;;;;;;9.18;4.05;;;;;;;13.72;100.00;101420.84;5059653;28;20055;-72
2022/10/05 10:45:07;;;;;;;14.25;4.22;;;;;;;13.73;100.00;101420.03;5062825;28;20697;-69
2022/10/05 10:48:11;;;;;;;7.43;3.67;;;;;;;13.72;98.85;101423.44;5057689;28;20052;-72
2022/10/05 10:51:08;;;;;;;7.78;4.32;;;;;;;13.72;99.96;101423.44;5066804;28;20116;-70
2022/10/05 10:54:20;;;;;;;8.63;4.10;;;;;;;13.76;100.00;101425.31;5055711;28;20052;-70
2022/10/05 10:56:58;;;;;;;11.93;4.85;;;;;;;13.80;100.00;101432.34;5062628;28;20045;-70
2022/10/05 11:00:00;;;;;;;10.60;4.45;;;;;;;13.82;100.00;101428.06;5068341;28;20265;-70
2022/10/05 11:02:54;;;;;;;10.27;4.30;;;;;;;13.85;100.00;101428.16;5064917;28;20066;-70
2022/10/05 11:06:01;;;;;;;9.98;4.70;;;;;;;13.87;100.00;101428.19;5020903;28;20062;-71
2022/10/05 11:09:14;;;;;;;13.48;4.95;;;;;;;13.90;100.00;101428.28;5018733;28;20520;-71
2022/10/05 11:12:26;;;;;;;16.40;5.43;;;;;;;13.93;100.00;101428.38;4987576;28;20818;-71
2022/10/05 11:15:31;;;;;;;9.57;4.90;;;;;;;13.95;100.00;101429.25;5059415;28;20408;-71
2022/10/05 11:18:19;;;;;;;9.55;5.22;;;;;;;13.94;100.00;101425.78;5074765;28;20045;-71
2022/10/05 11:21:18;;;;;;;18.63;6.20;;;;;;;13.95;100.00;101430.16;5062072;28;20560;-71
2022/10/05 11:24:37;;;;;;;12.95;5.30;;;;;;;13.89;100.00;101427.41;5041083;28;20603;-71
2022/10/05 11:27:44;;;;;;;17.23;4.50;;;;;;;13.86;100.00;101426.41;5055341;28;20044;-71
2022/10/05 11:30:38;;;;;;;19.45;4.93;;;;;;;13.85;100.00;101433.34;5033479;28;20551;-71
2022/10/05 11:33:38;;;;;;;20.48;6.97;;;;;;;13.89;100.00;101436.94;5062447;28;20048;-71
2022/10/05 11:36:36;;;;;;;18.77;5.93;;;;;;;13.87;100.00;101433.41;5059092;28;20076;-71
2022/10/05 11:39:45;;;;;;;15.10;5.07;;;;;;;13.80;100.00;101432.34;5058150;28;20076;-70
2022/10/05 11:42:53;;;;;;;12.65;5.75;;;;;;;13.74;100.00;101435.69;5052700;28;20101;-71
2022/10/05 11:45:35;;;;;;;20.58;4.72;;;;;;;13.67;100.00;101427.66;5067873;28;20562;-71
2022/10/05 11:48:44;;;;;;;23.13;5.50;;;;;;;13.66;100.00;101437.19;5060642;28;20689;-71
2022/10/05 11:51:34;;;;;;;9.77;4.88;;;;;;;13.65;100.00;101437.13;5050976;28;20064;-71
2022/10/05 11:54:23;;;;;;;14.55;5.25;;;;;;;13.65;100.00;101439.72;5066913;28;20123;-71
2022/10/05 11:56:59;;;;;;;16.05;4.95;;;;;;;13.68;100.00;101442.44;5063459;28;20049;-71
2022/10/05 11:59:35;;;;;;;13.60;6.47;;;;;;;13.72;100.00;101439.06;5064360;28;20048;-71
2022/10/05 12:02:20;;;;;;;16.02;5.80;;;;;;;13.74;100.00;101443.50;5063987;28;20545;-71
2022/10/05 12:04:59;;;;;;;15.73;5.13;;;;;;;13.73;100.00;101431.31;5063230;28;20045;-71
2022/10/05 12:07:36;;;;;;;14.70;6.47;;;;;;;13.73;100.00;101431.31;5048961;28;20052;-71
2022/10/05 12:10:20;;;;;;;17.90;5.40;;;;;;;13.70;100.00;101430.31;5052489;28;20056;-71
2022/10/05 12:13:03;;;;;;;12.63;5.50;;;;;;;13.66;100.00;101428.50;5051905;28;20490;-71
2022/10/05 12:15:41;;;;;;;10.57;5.28;;;;;;;13.65;100.00;101426.72;5055527;28;20556;-71
2022/10/05 12:18:16;;;;;;;11.77;5.15;;;;;;;13.65;100.00;101434.53;5055934;28;20045;-71
2022/10/05 12:20:50;;;;;;;15.30;4.82;;;;;;;13.64;100.00;101436.25;5048492;28;20068;-71
2022/10/05 12:23:24;;;;;;;14.98;5.63;;;;;;;13.66;100.00;101428.50;5064824;28;20049;-71
2022/10/05 12:26:06;;;;;;;10.90;5.03;;;;;;;13.70;100.00;101440.72;5057381;28;20418;-71
2022/10/05 12:28:41;;;;;;;17.83;5.80;;;;;;;13.66;100.00;101429.38;5061429;28;20044;-71
2022/10/05 12:31:21;;;;;;;18.83;5.40;;;;;;;13.74;100.00;101437.38;5063657;28;20045;-71
2022/10/05 12:34:00;;;;;;;14.63;5.07;;;;;;;13.68;100.00;101426.84;5071773;28;20521;-71